createdAt,value
2022-09-07T07:12:14.591Z,19.31
2022-09-07T07:15:17.284Z,18.36
2022-09-07T07:18:21.431Z,19.27
2022-09-07T07:21:24.309Z,19.39
2022-09-07T07:24:26.851Z,19.38
2022-09-07T07:27:31.498Z,19.63
2022-09-07T07:30:33.972Z,19.73
2022-09-07T07:33:36.737Z,19.72
2022-09-07T07:36:39.132Z,19.79
2022-09-07T07:43:05.661Z,19.71
2022-09-07T07:46:13.133Z,20.01
2022-09-07T07:49:16.077Z,20.07
2022-09-07T07:55:46.835Z,20.19
2022-09-07T07:58:49.742Z,20.34
2022-09-07T08:01:52.197Z,20.45
2022-09-07T08:04:54.937Z,20.49
2022-09-07T08:07:58.309Z,20.51
2022-09-07T08:11:07.909Z,20.67
2022-09-07T08:14:10.435Z,20.78
2022-09-07T08:17:14.513Z,21.03
2022-09-07T08:20:16.914Z,20.79
2022-09-07T08:23:20.537Z,20.93
2022-09-07T08:26:30.211Z,21.02
2022-09-07T08:29:35.192Z,21.28
2022-09-07T08:32:37.948Z,21.49
2022-09-07T08:35:40.612Z,21.63
2022-09-07T08:38:42.972Z,21.77
2022-09-07T08:41:51.725Z,21.83
2022-09-07T08:44:57.868Z,21.88
2022-09-07T08:48:00.794Z,21.74
2022-09-07T08:51:24.420Z,21.90
2022-09-07T08:54:27.487Z,21.94
2022-09-07T08:57:31.853Z,22.17
2022-09-07T09:00:36.108Z,22.30
2022-09-07T09:04:15.356Z,22.41
2022-09-07T09:07:22.210Z,22.58
2022-09-07T09:10:56.939Z,22.70
2022-09-07T09:14:23.873Z,22.62
2022-09-07T09:18:02.347Z,22.89
2022-09-07T09:21:07.962Z,22.95
2022-09-07T09:24:20.689Z,23.10
2022-09-07T09:27:24.587Z,23.16
2022-09-07T09:30:28.412Z,23.17
2022-09-07T09:33:31.187Z,23.48
2022-09-07T09:36:35.628Z,23.55
2022-09-07T09:39:38.527Z,23.82
2022-09-07T09:42:41.154Z,23.97
2022-09-07T09:49:18.199Z,24.11
2022-09-07T09:52:31.136Z,24.27
2022-09-07T09:55:36.535Z,24.48
2022-09-07T10:05:56.280Z,24.72
2022-09-07T10:09:00.470Z,24.76
2022-09-07T10:12:07.643Z,24.89
2022-09-07T10:15:24.988Z,24.98
2022-09-07T10:18:34.461Z,25.15
2022-09-07T10:21:36.777Z,25.23
2022-09-07T10:24:39.556Z,25.13
2022-09-07T10:27:42.071Z,25.47
2022-09-07T10:31:15.304Z,25.71
2022-09-07T10:34:33.161Z,26.07
2022-09-07T10:38:18.853Z,26.27
2022-09-07T10:41:22.706Z,26.37
2022-09-07T10:44:31.749Z,26.57
2022-09-07T10:47:55.373Z,26.58
2022-09-07T10:51:13.415Z,27.07
2022-09-07T10:54:43.965Z,27.37
2022-09-07T11:02:11.200Z,27.93
2022-09-07T11:05:32.709Z,28.25
2022-09-07T11:12:14.670Z,28.73
2022-09-07T11:15:21.410Z,29.42
2022-09-07T11:18:26.891Z,29.12
2022-09-07T11:22:03.344Z,28.57
2022-09-07T11:25:32.793Z,28.87
2022-09-07T11:28:44.783Z,29.48
2022-09-07T11:31:55.876Z,29.66
2022-09-07T11:35:06.056Z,29.32
2022-09-07T11:38:21.057Z,29.44
2022-09-07T11:41:41.067Z,29.63
2022-09-07T11:45:03.677Z,29.76
2022-09-07T11:48:11.129Z,30.82
2022-09-07T11:51:26.889Z,29.30
2022-09-07T11:58:29.917Z,30.36
2022-09-07T12:01:58.238Z,30.34
2022-09-07T12:05:24.750Z,31.06
2022-09-07T12:08:54.425Z,29.94
2022-09-07T12:12:13.738Z,30.35
2022-09-07T12:15:25.901Z,30.15
2022-09-07T12:19:02.336Z,30.75
2022-09-07T12:22:28.266Z,30.77
2022-09-07T12:25:31.949Z,30.16
2022-09-07T12:28:34.255Z,29.92
2022-09-07T12:31:57.192Z,29.24
2022-09-07T12:35:00.440Z,29.01
2022-09-07T12:38:06.003Z,29.28
2022-09-07T12:41:22.693Z,29.66
2022-09-07T12:44:29.276Z,30.50
2022-09-07T12:47:31.861Z,30.42
2022-09-07T12:50:39.274Z,31.19
2022-09-07T12:54:00.779Z,30.77
2022-09-07T12:57:30.642Z,31.06
2022-09-07T13:00:50.820Z,30.65
2022-09-07T13:04:16.473Z,30.23
2022-09-07T13:07:28.907Z,29.91
2022-09-07T13:10:41.780Z,30.49
2022-09-07T13:14:04.423Z,29.79
2022-09-07T13:17:29.362Z,29.88
2022-09-07T13:20:36.186Z,30.28
2022-09-07T13:24:45.560Z,28.70
2022-09-07T13:27:39.762Z,28.51
2022-09-07T13:31:00.678Z,28.05
2022-09-07T13:34:23.875Z,27.99
2022-09-07T13:37:26.634Z,27.67
2022-09-07T13:40:33.718Z,27.46
2022-09-07T13:43:36.453Z,26.98
2022-09-07T13:46:48.293Z,27.13
2022-09-07T13:49:56.110Z,27.21
2022-09-07T13:53:27.770Z,27.08
2022-09-07T13:56:30.248Z,27.13
2022-09-07T13:59:34.217Z,27.04
2022-09-07T14:02:36.853Z,26.94
